sensor_id;sensor_type;location;lat;lon;timestamp;P1;durP1;ratioP1;P2;durP2;ratioP2
19167;SDS011;9716;53.114;18.040;2022-12-18T00:00:07;49.83;;;19.60;;
19167;SDS011;9716;53.114;18.040;2022-12-18T00:02:58;43.43;;;16.67;;
19167;SDS011;9716;53.114;18.040;2022-12-18T00:05:26;36.20;;;16.63;;
19167;SDS011;9716;53.114;18.040;2022-12-18T00:07:55;46.77;;;17.23;;
19167;SDS011;9716;53.114;18.040;2022-12-18T00:10:23;40.77;;;18.63;;
19167;SDS011;9716;53.114;18.040;2022-12-18T00:12:51;42.27;;;17.87;;
19167;SDS011;9716;53.114;18.040;2022-12-18T00:15:20;44.30;;;16.23;;
19167;SDS011;9716;53.114;18.040;2022-12-18T00:17:49;46.33;;;17.30;;
19167;SDS011;9716;53.114;18.040;2022-12-18T00:20:19;44.07;;;15.87;;
19167;SDS011;9716;53.114;18.040;2022-12-18T00:22:52;48.83;;;18.80;;
19167;SDS011;9716;53.114;18.040;2022-12-18T00:25:20;45.73;;;17.07;;
19167;SDS011;9716;53.114;18.040;2022-12-18T00:27:49;43.90;;;16.67;;
19167;SDS011;9716;53.114;18.040;2022-12-18T00:30:17;56.20;;;18.47;;
19167;SDS011;9716;53.114;18.040;2022-12-18T00:32:46;36.57;;;16.77;;
19167;SDS011;9716;53.114;18.040;2022-12-18T00:35:14;53.00;;;18.70;;
19167;SDS011;9716;53.114;18.040;2022-12-18T00:37:44;44.10;;;17.50;;
19167;SDS011;9716;53.114;18.040;2022-12-18T00:40:12;32.17;;;16.40;;
19167;SDS011;9716;53.114;18.040;2022-12-18T00:42:41;40.67;;;17.30;;
19167;SDS011;9716;53.114;18.040;2022-12-18T00:45:24;33.83;;;15.17;;
19167;SDS011;9716;53.114;18.040;2022-12-18T00:47:55;47.70;;;17.40;;
19167;SDS011;9716;53.114;18.040;2022-12-18T00:50:23;45.70;;;18.47;;
19167;SDS011;9716;53.114;18.040;2022-12-18T00:52:54;50.00;;;18.60;;
19167;SDS011;9716;53.114;18.040;2022-12-18T00:55:22;41.40;;;16.50;;
19167;SDS011;9716;53.114;18.040;2022-12-18T00:57:50;47.87;;;15.83;;
19167;SDS011;9716;53.114;18.040;2022-12-18T01:00:19;47.80;;;17.77;;
19167;SDS011;9716;53.114;18.040;2022-12-18T01:02:48;55.23;;;18.40;;
19167;SDS011;9716;53.114;18.040;2022-12-18T01:05:17;43.97;;;17.53;;
19167;SDS011;9716;53.114;18.040;2022-12-18T01:07:46;50.80;;;18.63;;
19167;SDS011;9716;53.114;18.040;2022-12-18T01:10:16;46.37;;;18.30;;
19167;SDS011;9716;53.114;18.040;2022-12-18T01:12:45;41.60;;;18.03;;
19167;SDS011;9716;53.114;18.040;2022-12-18T01:15:14;43.03;;;15.10;;
19167;SDS011;9716;53.114;18.040;2022-12-18T01:17:43;39.80;;;17.50;;
19167;SDS011;9716;53.114;18.040;2022-12-18T01:20:12;43.17;;;18.00;;
19167;SDS011;9716;53.114;18.040;2022-12-18T01:22:41;47.27;;;17.03;;
19167;SDS011;9716;53.114;18.040;2022-12-18T01:25:10;45.17;;;15.90;;
19167;SDS011;9716;53.114;18.040;2022-12-18T01:27:40;53.27;;;17.77;;
19167;SDS011;9716;53.114;18.040;2022-12-18T01:30:08;43.87;;;17.67;;
19167;SDS011;9716;53.114;18.040;2022-12-18T01:32:37;34.57;;;15.57;;
19167;SDS011;9716;53.114;18.040;2022-12-18T01:35:06;37.13;;;15.97;;
19167;SDS011;9716;53.114;18.040;2022-12-18T01:37:36;51.27;;;16.13;;
19167;SDS011;9716;53.114;18.040;2022-12-18T01:40:04;43.43;;;17.67;;
19167;SDS011;9716;53.114;18.040;2022-12-18T01:42:34;47.77;;;16.63;;
19167;SDS011;9716;53.114;18.040;2022-12-18T01:45:06;40.93;;;15.43;;
19167;SDS011;9716;53.114;18.040;2022-12-18T01:47:49;43.63;;;14.80;;
19167;SDS011;9716;53.114;18.040;2022-12-18T01:50:20;46.53;;;15.20;;
19167;SDS011;9716;53.114;18.040;2022-12-18T01:52:52;32.87;;;15.13;;
19167;SDS011;9716;53.114;18.040;2022-12-18T01:55:23;39.10;;;14.57;;
19167;SDS011;9716;53.114;18.040;2022-12-18T01:57:55;31.83;;;13.80;;
19167;SDS011;9716;53.114;18.040;2022-12-18T02:00:27;33.80;;;14.37;;
19167;SDS011;9716;53.114;18.040;2022-12-18T02:02:56;28.37;;;12.70;;
19167;SDS011;9716;53.114;18.040;2022-12-18T02:05:29;44.23;;;13.50;;
19167;SDS011;9716;53.114;18.040;2022-12-18T02:08:07;38.43;;;13.23;;
19167;SDS011;9716;53.114;18.040;2022-12-18T02:10:40;32.27;;;12.93;;
19167;SDS011;9716;53.114;18.040;2022-12-18T02:13:14;31.57;;;11.80;;
19167;SDS011;9716;53.114;18.040;2022-12-18T02:15:54;31.53;;;12.67;;
19167;SDS011;9716;53.114;18.040;2022-12-18T02:18:30;29.10;;;12.60;;
19167;SDS011;9716;53.114;18.040;2022-12-18T02:21:08;34.93;;;12.20;;
19167;SDS011;9716;53.114;18.040;2022-12-18T02:23:45;30.33;;;10.73;;
19167;SDS011;9716;53.114;18.040;2022-12-18T02:26:19;22.40;;;10.70;;
19167;SDS011;9716;53.114;18.040;2022-12-18T02:28:52;22.33;;;10.53;;
19167;SDS011;9716;53.114;18.040;2022-12-18T02:31:24;31.33;;;11.63;;
19167;SDS011;9716;53.114;18.040;2022-12-18T02:33:56;29.17;;;11.33;;
19167;SDS011;9716;53.114;18.040;2022-12-18T02:36:29;27.77;;;10.47;;
19167;SDS011;9716;53.114;18.040;2022-12-18T02:39:01;28.47;;;11.83;;
19167;SDS011;9716;53.114;18.040;2022-12-18T02:41:32;25.33;;;10.40;;
19167;SDS011;9716;53.114;18.040;2022-12-18T02:44:06;23.57;;;9.40;;
19167;SDS011;9716;53.114;18.040;2022-12-18T02:46:37;24.83;;;9.73;;
19167;SDS011;9716;53.114;18.040;2022-12-18T02:49:14;27.47;;;11.77;;
19167;SDS011;9716;53.114;18.040;2022-12-18T02:51:54;22.47;;;9.70;;
19167;SDS011;9716;53.114;18.040;2022-12-18T02:54:32;24.53;;;10.30;;
19167;SDS011;9716;53.114;18.040;2022-12-18T02:57:11;21.60;;;10.20;;
19167;SDS011;9716;53.114;18.040;2022-12-18T02:59:46;29.10;;;10.33;;
19167;SDS011;9716;53.114;18.040;2022-12-18T03:02:21;28.10;;;10.80;;
19167;SDS011;9716;53.114;18.040;2022-12-18T03:04:55;17.20;;;8.50;;
19167;SDS011;9716;53.114;18.040;2022-12-18T03:07:33;22.47;;;9.80;;
19167;SDS011;9716;53.114;18.040;2022-12-18T03:10:05;29.73;;;11.27;;
19167;SDS011;9716;53.114;18.040;2022-12-18T03:12:38;23.63;;;9.73;;
19167;SDS011;9716;53.114;18.040;2022-12-18T03:15:13;26.37;;;9.33;;
19167;SDS011;9716;53.114;18.040;2022-12-18T03:17:46;23.87;;;10.50;;
19167;SDS011;9716;53.114;18.040;2022-12-18T03:20:19;21.47;;;9.53;;
19167;SDS011;9716;53.114;18.040;2022-12-18T03:22:50;26.47;;;10.07;;
19167;SDS011;9716;53.114;18.040;2022-12-18T03:25:28;27.33;;;10.30;;
19167;SDS011;9716;53.114;18.040;2022-12-18T03:28:01;23.53;;;10.17;;
19167;SDS011;9716;53.114;18.040;2022-12-18T03:30:35;24.87;;;10.47;;
19167;SDS011;9716;53.114;18.040;2022-12-18T03:33:09;26.27;;;9.73;;
19167;SDS011;9716;53.114;18.040;2022-12-18T03:35:41;25.20;;;10.40;;
19167;SDS011;9716;53.114;18.040;2022-12-18T03:38:11;25.40;;;10.77;;
19167;SDS011;9716;53.114;18.040;2022-12-18T03:40:45;25.80;;;9.33;;
19167;SDS011;9716;53.114;18.040;2022-12-18T03:43:24;29.40;;;11.70;;
19167;SDS011;9716;53.114;18.040;2022-12-18T03:46:04;23.13;;;10.30;;
19167;SDS011;9716;53.114;18.040;2022-12-18T03:48:41;28.70;;;11.03;;
19167;SDS011;9716;53.114;18.040;2022-12-18T03:51:15;31.00;;;10.57;;
19167;SDS011;9716;53.114;18.040;2022-12-18T03:53:47;28.63;;;12.17;;
19167;SDS011;9716;53.114;18.040;2022-12-18T03:56:19;30.37;;;11.00;;
19167;SDS011;9716;53.114;18.040;2022-12-18T03:58:54;37.23;;;11.63;;
19167;SDS011;9716;53.114;18.040;2022-12-18T04:01:25;24.07;;;10.37;;
19167;SDS011;9716;53.114;18.040;2022-12-18T04:03:58;30.63;;;10.97;;
19167;SDS011;9716;53.114;18.040;2022-12-18T04:06:28;34.37;;;11.43;;
19167;SDS011;9716;53.114;18.040;2022-12-18T04:08:58;26.07;;;10.73;;
19167;SDS011;9716;53.114;18.040;2022-12-18T04:11:26;28.90;;;10.63;;
19167;SDS011;9716;53.114;18.040;2022-12-18T04:13:56;32.07;;;11.73;;
19167;SDS011;9716;53.114;18.040;2022-12-18T04:16:30;24.27;;;10.97;;
19167;SDS011;9716;53.114;18.040;2022-12-18T04:18:58;25.27;;;11.10;;
19167;SDS011;9716;53.114;18.040;2022-12-18T04:21:27;27.77;;;10.87;;
19167;SDS011;9716;53.114;18.040;2022-12-18T04:23:55;27.27;;;10.77;;
19167;SDS011;9716;53.114;18.040;2022-12-18T04:26:24;22.07;;;10.57;;
19167;SDS011;9716;53.114;18.040;2022-12-18T04:28:52;28.83;;;11.37;;
19167;SDS011;9716;53.114;18.040;2022-12-18T04:31:22;34.07;;;10.43;;
19167;SDS011;9716;53.114;18.040;2022-12-18T04:33:51;28.60;;;9.67;;
19167;SDS011;9716;53.114;18.040;2022-12-18T04:36:19;27.13;;;11.23;;
19167;SDS011;9716;53.114;18.040;2022-12-18T04:38:47;33.20;;;11.13;;
19167;SDS011;9716;53.114;18.040;2022-12-18T04:41:16;26.07;;;11.50;;
19167;SDS011;9716;53.114;18.040;2022-12-18T04:43:44;23.57;;;11.00;;
19167;SDS011;9716;53.114;18.040;2022-12-18T04:46:13;29.60;;;11.40;;
19167;SDS011;9716;53.114;18.040;2022-12-18T04:48:44;26.63;;;11.53;;
19167;SDS011;9716;53.114;18.040;2022-12-18T04:51:14;25.13;;;11.90;;
19167;SDS011;9716;53.114;18.040;2022-12-18T04:53:48;35.70;;;11.97;;
19167;SDS011;9716;53.114;18.040;2022-12-18T04:56:17;26.93;;;11.03;;
19167;SDS011;9716;53.114;18.040;2022-12-18T04:58:45;25.00;;;11.90;;
19167;SDS011;9716;53.114;18.040;2022-12-18T05:01:14;42.57;;;12.20;;
19167;SDS011;9716;53.114;18.040;2022-12-18T05:03:45;29.40;;;12.77;;
19167;SDS011;9716;53.114;18.040;2022-12-18T05:06:14;29.77;;;12.43;;
19167;SDS011;9716;53.114;18.040;2022-12-18T05:08:42;24.50;;;12.50;;
19167;SDS011;9716;53.114;18.040;2022-12-18T05:11:12;40.10;;;12.50;;
19167;SDS011;9716;53.114;18.040;2022-12-18T05:13:43;38.03;;;12.90;;
19167;SDS011;9716;53.114;18.040;2022-12-18T05:16:13;30.13;;;12.10;;
19167;SDS011;9716;53.114;18.040;2022-12-18T05:18:42;32.47;;;11.50;;
19167;SDS011;9716;53.114;18.040;2022-12-18T05:21:12;37.60;;;11.40;;
19167;SDS011;9716;53.114;18.040;2022-12-18T05:23:40;31.47;;;11.83;;
19167;SDS011;9716;53.114;18.040;2022-12-18T05:26:09;29.43;;;12.37;;
19167;SDS011;9716;53.114;18.040;2022-12-18T05:28:44;33.93;;;12.97;;
19167;SDS011;9716;53.114;18.040;2022-12-18T05:31:13;32.87;;;12.53;;
19167;SDS011;9716;53.114;18.040;2022-12-18T05:33:42;31.20;;;12.83;;
19167;SDS011;9716;53.114;18.040;2022-12-18T05:36:12;37.40;;;13.90;;
19167;SDS011;9716;53.114;18.040;2022-12-18T05:38:41;26.27;;;11.47;;
19167;SDS011;9716;53.114;18.040;2022-12-18T05:41:09;33.53;;;12.93;;
19167;SDS011;9716;53.114;18.040;2022-12-18T05:43:38;29.93;;;13.33;;
19167;SDS011;9716;53.114;18.040;2022-12-18T05:46:11;36.63;;;13.20;;
19167;SDS011;9716;53.114;18.040;2022-12-18T05:48:41;26.37;;;12.43;;
19167;SDS011;9716;53.114;18.040;2022-12-18T05:51:11;37.37;;;13.63;;
19167;SDS011;9716;53.114;18.040;2022-12-18T05:53:43;31.37;;;12.13;;
19167;SDS011;9716;53.114;18.040;2022-12-18T05:56:12;29.33;;;12.13;;
19167;SDS011;9716;53.114;18.040;2022-12-18T05:58:42;34.53;;;13.30;;
19167;SDS011;9716;53.114;18.040;2022-12-18T06:01:13;27.67;;;12.60;;
19167;SDS011;9716;53.114;18.040;2022-12-18T06:03:46;37.70;;;13.30;;
19167;SDS011;9716;53.114;18.040;2022-12-18T06:06:17;28.57;;;12.27;;
19167;SDS011;9716;53.114;18.040;2022-12-18T06:08:47;44.53;;;12.93;;
19167;SDS011;9716;53.114;18.040;2022-12-18T06:11:17;32.43;;;12.57;;
19167;SDS011;9716;53.114;18.040;2022-12-18T06:13:46;47.20;;;12.63;;
19167;SDS011;9716;53.114;18.040;2022-12-18T06:16:24;41.87;;;14.43;;
19167;SDS011;9716;53.114;18.040;2022-12-18T06:18:53;31.33;;;12.23;;
19167;SDS011;9716;53.114;18.040;2022-12-18T06:21:24;37.80;;;12.93;;
19167;SDS011;9716;53.114;18.040;2022-12-18T06:23:53;38.33;;;13.83;;
19167;SDS011;9716;53.114;18.040;2022-12-18T06:26:22;33.87;;;13.17;;
19167;SDS011;9716;53.114;18.040;2022-12-18T06:28:54;26.77;;;12.50;;
19167;SDS011;9716;53.114;18.040;2022-12-18T06:31:23;29.13;;;13.17;;
19167;SDS011;9716;53.114;18.040;2022-12-18T06:33:52;31.40;;;12.87;;
19167;SDS011;9716;53.114;18.040;2022-12-18T06:36:21;30.07;;;12.37;;
19167;SDS011;9716;53.114;18.040;2022-12-18T06:38:50;41.07;;;14.07;;
19167;SDS011;9716;53.114;18.040;2022-12-18T06:41:20;34.67;;;13.73;;
19167;SDS011;9716;53.114;18.040;2022-12-18T06:43:49;29.23;;;12.97;;
19167;SDS011;9716;53.114;18.040;2022-12-18T06:46:23;26.00;;;12.57;;
19167;SDS011;9716;53.114;18.040;2022-12-18T06:48:52;43.40;;;13.07;;
19167;SDS011;9716;53.114;18.040;2022-12-18T06:51:21;36.50;;;14.40;;
19167;SDS011;9716;53.114;18.040;2022-12-18T06:56:40;38.20;;;13.27;;
19167;SDS011;9716;53.114;18.040;2022-12-18T06:59:09;32.93;;;13.10;;
19167;SDS011;9716;53.114;18.040;2022-12-18T07:01:37;36.43;;;13.00;;
19167;SDS011;9716;53.114;18.040;2022-12-18T07:04:06;34.93;;;13.27;;
19167;SDS011;9716;53.114;18.040;2022-12-18T07:06:35;35.90;;;14.17;;
19167;SDS011;9716;53.114;18.040;2022-12-18T07:09:03;37.60;;;14.03;;
19167;SDS011;9716;53.114;18.040;2022-12-18T07:11:33;35.17;;;14.17;;
19167;SDS011;9716;53.114;18.040;2022-12-18T07:14:01;29.10;;;13.37;;
19167;SDS011;9716;53.114;18.040;2022-12-18T07:16:30;34.80;;;12.37;;
19167;SDS011;9716;53.114;18.040;2022-12-18T07:18:59;39.47;;;13.70;;
19167;SDS011;9716;53.114;18.040;2022-12-18T07:21:27;39.53;;;13.77;;
19167;SDS011;9716;53.114;18.040;2022-12-18T07:23:56;39.43;;;13.30;;
19167;SDS011;9716;53.114;18.040;2022-12-18T07:26:25;36.83;;;13.43;;
19167;SDS011;9716;53.114;18.040;2022-12-18T07:28:55;36.70;;;12.80;;
19167;SDS011;9716;53.114;18.040;2022-12-18T07:31:25;34.60;;;13.93;;
19167;SDS011;9716;53.114;18.040;2022-12-18T07:33:54;28.47;;;11.77;;
19167;SDS011;9716;53.114;18.040;2022-12-18T07:36:23;40.87;;;12.83;;
19167;SDS011;9716;53.114;18.040;2022-12-18T07:38:52;28.43;;;12.80;;
19167;SDS011;9716;53.114;18.040;2022-12-18T07:41:20;30.60;;;12.60;;
19167;SDS011;9716;53.114;18.040;2022-12-18T07:43:49;31.27;;;12.30;;
19167;SDS011;9716;53.114;18.040;2022-12-18T07:46:19;32.10;;;11.93;;
19167;SDS011;9716;53.114;18.040;2022-12-18T07:48:48;26.77;;;12.07;;
19167;SDS011;9716;53.114;18.040;2022-12-18T07:51:17;30.97;;;12.53;;
19167;SDS011;9716;53.114;18.040;2022-12-18T07:53:46;33.17;;;11.60;;
19167;SDS011;9716;53.114;18.040;2022-12-18T07:56:18;34.97;;;12.47;;
19167;SDS011;9716;53.114;18.040;2022-12-18T07:58:54;34.27;;;12.30;;
19167;SDS011;9716;53.114;18.040;2022-12-18T08:01:24;33.77;;;13.83;;
19167;SDS011;9716;53.114;18.040;2022-12-18T08:03:54;30.70;;;12.10;;
19167;SDS011;9716;53.114;18.040;2022-12-18T08:06:22;30.73;;;13.03;;
19167;SDS011;9716;53.114;18.040;2022-12-18T08:08:51;42.70;;;14.00;;
19167;SDS011;9716;53.114;18.040;2022-12-18T08:11:21;36.20;;;13.13;;
19167;SDS011;9716;53.114;18.040;2022-12-18T08:13:50;32.17;;;12.83;;
19167;SDS011;9716;53.114;18.040;2022-12-18T08:16:20;39.50;;;13.53;;
19167;SDS011;9716;53.114;18.040;2022-12-18T08:18:51;30.27;;;11.73;;
19167;SDS011;9716;53.114;18.040;2022-12-18T08:21:20;30.10;;;11.93;;
19167;SDS011;9716;53.114;18.040;2022-12-18T08:23:50;38.33;;;14.43;;
19167;SDS011;9716;53.114;18.040;2022-12-18T08:26:19;35.17;;;14.20;;
19167;SDS011;9716;53.114;18.040;2022-12-18T08:28:48;32.30;;;12.50;;
19167;SDS011;9716;53.114;18.040;2022-12-18T08:31:18;33.73;;;13.40;;
19167;SDS011;9716;53.114;18.040;2022-12-18T08:33:49;31.77;;;13.13;;
19167;SDS011;9716;53.114;18.040;2022-12-18T08:36:21;32.53;;;12.23;;
19167;SDS011;9716;53.114;18.040;2022-12-18T08:38:51;41.17;;;12.47;;
19167;SDS011;9716;53.114;18.040;2022-12-18T08:41:19;26.47;;;11.83;;
19167;SDS011;9716;53.114;18.040;2022-12-18T08:43:48;37.70;;;12.70;;
19167;SDS011;9716;53.114;18.040;2022-12-18T08:46:35;38.93;;;12.10;;
19167;SDS011;9716;53.114;18.040;2022-12-18T08:49:06;30.23;;;13.60;;
19167;SDS011;9716;53.114;18.040;2022-12-18T08:51:35;35.07;;;13.20;;
19167;SDS011;9716;53.114;18.040;2022-12-18T08:54:04;32.13;;;13.53;;
19167;SDS011;9716;53.114;18.040;2022-12-18T08:56:34;32.20;;;11.67;;
19167;SDS011;9716;53.114;18.040;2022-12-18T08:59:02;29.47;;;11.90;;
19167;SDS011;9716;53.114;18.040;2022-12-18T09:01:31;34.60;;;13.83;;
19167;SDS011;9716;53.114;18.040;2022-12-18T09:04:01;34.83;;;14.33;;
19167;SDS011;9716;53.114;18.040;2022-12-18T09:06:31;33.50;;;13.10;;
19167;SDS011;9716;53.114;18.040;2022-12-18T09:09:00;36.03;;;13.73;;
19167;SDS011;9716;53.114;18.040;2022-12-18T09:11:29;40.80;;;14.07;;
19167;SDS011;9716;53.114;18.040;2022-12-18T09:13:59;37.00;;;13.27;;
19167;SDS011;9716;53.114;18.040;2022-12-18T09:16:29;27.37;;;11.40;;
19167;SDS011;9716;53.114;18.040;2022-12-18T09:18:58;29.97;;;12.13;;
19167;SDS011;9716;53.114;18.040;2022-12-18T09:21:28;31.60;;;12.53;;
19167;SDS011;9716;53.114;18.040;2022-12-18T09:24:03;26.73;;;11.27;;
19167;SDS011;9716;53.114;18.040;2022-12-18T09:26:35;33.23;;;13.87;;
19167;SDS011;9716;53.114;18.040;2022-12-18T09:29:05;26.63;;;11.77;;
19167;SDS011;9716;53.114;18.040;2022-12-18T09:31:34;29.80;;;11.43;;
19167;SDS011;9716;53.114;18.040;2022-12-18T09:34:03;29.87;;;11.80;;
19167;SDS011;9716;53.114;18.040;2022-12-18T09:36:32;25.83;;;10.33;;
19167;SDS011;9716;53.114;18.040;2022-12-18T09:39:00;38.10;;;13.20;;
19167;SDS011;9716;53.114;18.040;2022-12-18T09:41:43;24.37;;;11.50;;
19167;SDS011;9716;53.114;18.040;2022-12-18T09:44:16;32.33;;;11.83;;
19167;SDS011;9716;53.114;18.040;2022-12-18T09:46:52;38.77;;;14.00;;
19167;SDS011;9716;53.114;18.040;2022-12-18T09:49:26;35.40;;;11.97;;
19167;SDS011;9716;53.114;18.040;2022-12-18T09:51:59;29.60;;;11.80;;
19167;SDS011;9716;53.114;18.040;2022-12-18T09:54:32;26.53;;;11.80;;
19167;SDS011;9716;53.114;18.040;2022-12-18T09:57:06;33.43;;;11.80;;
19167;SDS011;9716;53.114;18.040;2022-12-18T09:59:41;31.83;;;12.40;;
19167;SDS011;9716;53.114;18.040;2022-12-18T10:02:15;34.07;;;11.00;;
19167;SDS011;9716;53.114;18.040;2022-12-18T10:04:47;27.60;;;11.30;;
19167;SDS011;9716;53.114;18.040;2022-12-18T10:07:36;26.73;;;10.87;;
19167;SDS011;9716;53.114;18.040;2022-12-18T10:10:18;31.73;;;11.63;;
19167;SDS011;9716;53.114;18.040;2022-12-18T10:12:55;26.73;;;11.20;;
19167;SDS011;9716;53.114;18.040;2022-12-18T10:15:34;23.90;;;11.50;;
19167;SDS011;9716;53.114;18.040;2022-12-18T10:18:13;25.70;;;10.83;;
19167;SDS011;9716;53.114;18.040;2022-12-18T10:20:51;25.97;;;11.53;;
19167;SDS011;9716;53.114;18.040;2022-12-18T10:23:24;28.10;;;12.70;;
19167;SDS011;9716;53.114;18.040;2022-12-18T10:25:58;28.33;;;11.63;;
19167;SDS011;9716;53.114;18.040;2022-12-18T10:28:30;23.57;;;11.93;;
19167;SDS011;9716;53.114;18.040;2022-12-18T10:30:59;27.20;;;11.17;;
19167;SDS011;9716;53.114;18.040;2022-12-18T10:33:29;30.77;;;11.17;;
19167;SDS011;9716;53.114;18.040;2022-12-18T10:35:58;31.87;;;12.27;;
19167;SDS011;9716;53.114;18.040;2022-12-18T10:38:28;34.33;;;13.60;;
19167;SDS011;9716;53.114;18.040;2022-12-18T10:41:00;35.70;;;13.30;;
19167;SDS011;9716;53.114;18.040;2022-12-18T10:43:31;34.00;;;14.40;;
19167;SDS011;9716;53.114;18.040;2022-12-18T10:46:03;37.73;;;13.53;;
19167;SDS011;9716;53.114;18.040;2022-12-18T10:48:47;21.90;;;11.70;;
19167;SDS011;9716;53.114;18.040;2022-12-18T10:51:20;34.03;;;12.27;;
19167;SDS011;9716;53.114;18.040;2022-12-18T10:53:51;26.37;;;12.37;;
19167;SDS011;9716;53.114;18.040;2022-12-18T10:56:25;38.47;;;12.70;;
19167;SDS011;9716;53.114;18.040;2022-12-18T10:58:57;25.13;;;11.77;;
19167;SDS011;9716;53.114;18.040;2022-12-18T11:01:27;36.77;;;14.17;;
19167;SDS011;9716;53.114;18.040;2022-12-18T11:03:59;48.03;;;13.30;;
19167;SDS011;9716;53.114;18.040;2022-12-18T11:06:35;34.43;;;12.53;;
19167;SDS011;9716;53.114;18.040;2022-12-18T11:09:26;37.80;;;13.23;;
19167;SDS011;9716;53.114;18.040;2022-12-18T11:11:57;31.63;;;13.70;;
19167;SDS011;9716;53.114;18.040;2022-12-18T11:14:28;42.70;;;15.10;;
19167;SDS011;9716;53.114;18.040;2022-12-18T11:17:00;30.30;;;13.13;;
19167;SDS011;9716;53.114;18.040;2022-12-18T11:19:52;42.80;;;13.67;;
19167;SDS011;9716;53.114;18.040;2022-12-18T11:22:23;33.97;;;14.10;;
19167;SDS011;9716;53.114;18.040;2022-12-18T11:24:55;30.90;;;13.37;;
19167;SDS011;9716;53.114;18.040;2022-12-18T11:27:51;36.83;;;14.43;;
19167;SDS011;9716;53.114;18.040;2022-12-18T11:30:21;46.50;;;14.23;;
19167;SDS011;9716;53.114;18.040;2022-12-18T11:32:53;44.83;;;14.23;;
19167;SDS011;9716;53.114;18.040;2022-12-18T11:35:35;37.40;;;15.13;;
19167;SDS011;9716;53.114;18.040;2022-12-18T11:38:11;41.27;;;14.50;;
19167;SDS011;9716;53.114;18.040;2022-12-18T11:40:47;30.23;;;13.20;;
19167;SDS011;9716;53.114;18.040;2022-12-18T11:43:25;44.50;;;14.87;;
19167;SDS011;9716;53.114;18.040;2022-12-18T11:45:59;41.60;;;16.87;;
19167;SDS011;9716;53.114;18.040;2022-12-18T11:48:32;34.13;;;13.80;;
19167;SDS011;9716;53.114;18.040;2022-12-18T11:51:09;49.43;;;15.97;;
19167;SDS011;9716;53.114;18.040;2022-12-18T11:53:41;46.27;;;17.07;;
19167;SDS011;9716;53.114;18.040;2022-12-18T11:56:15;46.03;;;16.23;;
19167;SDS011;9716;53.114;18.040;2022-12-18T11:58:59;44.50;;;14.83;;
19167;SDS011;9716;53.114;18.040;2022-12-18T12:01:40;42.23;;;16.00;;
19167;SDS011;9716;53.114;18.040;2022-12-18T12:04:21;37.80;;;14.43;;
19167;SDS011;9716;53.114;18.040;2022-12-18T12:07:19;47.67;;;17.57;;
19167;SDS011;9716;53.114;18.040;2022-12-18T12:09:58;45.00;;;17.03;;
19167;SDS011;9716;53.114;18.040;2022-12-18T12:12:39;56.70;;;19.77;;
19167;SDS011;9716;53.114;18.040;2022-12-18T12:15:21;45.37;;;16.83;;
19167;SDS011;9716;53.114;18.040;2022-12-18T12:17:59;49.80;;;16.37;;
19167;SDS011;9716;53.114;18.040;2022-12-18T12:20:41;40.30;;;16.63;;
19167;SDS011;9716;53.114;18.040;2022-12-18T12:23:19;58.53;;;16.53;;
19167;SDS011;9716;53.114;18.040;2022-12-18T12:25:56;50.93;;;16.77;;
19167;SDS011;9716;53.114;18.040;2022-12-18T12:28:38;56.00;;;16.80;;
19167;SDS011;9716;53.114;18.040;2022-12-18T12:31:26;38.13;;;17.03;;
19167;SDS011;9716;53.114;18.040;2022-12-18T12:34:15;52.53;;;17.73;;
19167;SDS011;9716;53.114;18.040;2022-12-18T12:36:52;51.20;;;17.40;;
19167;SDS011;9716;53.114;18.040;2022-12-18T12:39:31;53.80;;;17.80;;
19167;SDS011;9716;53.114;18.040;2022-12-18T12:42:04;64.63;;;18.63;;
19167;SDS011;9716;53.114;18.040;2022-12-18T12:45:05;54.43;;;17.77;;
19167;SDS011;9716;53.114;18.040;2022-12-18T12:47:37;56.77;;;20.13;;
19167;SDS011;9716;53.114;18.040;2022-12-18T12:50:13;51.13;;;17.37;;
19167;SDS011;9716;53.114;18.040;2022-12-18T12:52:45;60.93;;;20.77;;
19167;SDS011;9716;53.114;18.040;2022-12-18T12:55:17;53.90;;;18.93;;
19167;SDS011;9716;53.114;18.040;2022-12-18T12:57:53;56.00;;;19.53;;
19167;SDS011;9716;53.114;18.040;2022-12-18T13:00:25;63.30;;;20.90;;
19167;SDS011;9716;53.114;18.040;2022-12-18T13:03:02;51.43;;;18.73;;
19167;SDS011;9716;53.114;18.040;2022-12-18T13:05:38;61.57;;;19.60;;
19167;SDS011;9716;53.114;18.040;2022-12-18T13:08:22;44.40;;;18.43;;
19167;SDS011;9716;53.114;18.040;2022-12-18T13:10:53;55.03;;;17.93;;
19167;SDS011;9716;53.114;18.040;2022-12-18T13:13:49;61.53;;;20.50;;
19167;SDS011;9716;53.114;18.040;2022-12-18T13:16:19;44.37;;;18.97;;
19167;SDS011;9716;53.114;18.040;2022-12-18T13:18:51;51.80;;;18.23;;
19167;SDS011;9716;53.114;18.040;2022-12-18T13:21:21;62.00;;;20.20;;
19167;SDS011;9716;53.114;18.040;2022-12-18T13:23:54;45.77;;;17.40;;
19167;SDS011;9716;53.114;18.040;2022-12-18T13:26:31;53.00;;;17.43;;
19167;SDS011;9716;53.114;18.040;2022-12-18T13:29:01;56.47;;;18.27;;
19167;SDS011;9716;53.114;18.040;2022-12-18T13:34:28;46.93;;;18.37;;
19167;SDS011;9716;53.114;18.040;2022-12-18T13:43:21;58.60;;;19.63;;
19167;SDS011;9716;53.114;18.040;2022-12-18T13:45:59;50.27;;;16.77;;
19167;SDS011;9716;53.114;18.040;2022-12-18T13:48:31;56.47;;;20.33;;
19167;SDS011;9716;53.114;18.040;2022-12-18T13:51:03;44.60;;;16.53;;
19167;SDS011;9716;53.114;18.040;2022-12-18T13:53:36;55.77;;;19.03;;
19167;SDS011;9716;53.114;18.040;2022-12-18T13:56:07;49.10;;;19.37;;
19167;SDS011;9716;53.114;18.040;2022-12-18T13:58:36;64.47;;;19.73;;
19167;SDS011;9716;53.114;18.040;2022-12-18T14:01:04;48.30;;;18.73;;
19167;SDS011;9716;53.114;18.040;2022-12-18T14:03:33;61.73;;;20.97;;
19167;SDS011;9716;53.114;18.040;2022-12-18T14:06:04;52.03;;;20.03;;
19167;SDS011;9716;53.114;18.040;2022-12-18T14:08:37;76.43;;;20.77;;
19167;SDS011;9716;53.114;18.040;2022-12-18T14:11:20;61.73;;;20.13;;
19167;SDS011;9716;53.114;18.040;2022-12-18T14:13:52;62.47;;;20.97;;
19167;SDS011;9716;53.114;18.040;2022-12-18T14:16:21;67.33;;;20.23;;
19167;SDS011;9716;53.114;18.040;2022-12-18T14:18:51;62.80;;;22.03;;
19167;SDS011;9716;53.114;18.040;2022-12-18T14:21:36;54.00;;;20.13;;
19167;SDS011;9716;53.114;18.040;2022-12-18T14:24:12;55.10;;;19.47;;
19167;SDS011;9716;53.114;18.040;2022-12-18T14:26:45;65.93;;;21.37;;
19167;SDS011;9716;53.114;18.040;2022-12-18T14:29:21;64.17;;;20.73;;
19167;SDS011;9716;53.114;18.040;2022-12-18T14:32:07;57.40;;;19.70;;
19167;SDS011;9716;53.114;18.040;2022-12-18T14:34:44;61.77;;;20.83;;
19167;SDS011;9716;53.114;18.040;2022-12-18T14:37:15;57.27;;;20.47;;
19167;SDS011;9716;53.114;18.040;2022-12-18T14:39:52;77.43;;;22.37;;
19167;SDS011;9716;53.114;18.040;2022-12-18T14:42:25;69.43;;;22.60;;
19167;SDS011;9716;53.114;18.040;2022-12-18T14:48:08;77.40;;;22.00;;
19167;SDS011;9716;53.114;18.040;2022-12-18T14:50:59;51.93;;;19.87;;
19167;SDS011;9716;53.114;18.040;2022-12-18T14:53:40;77.50;;;21.53;;
19167;SDS011;9716;53.114;18.040;2022-12-18T14:56:20;54.93;;;20.17;;
19167;SDS011;9716;53.114;18.040;2022-12-18T14:58:50;48.23;;;18.57;;
19167;SDS011;9716;53.114;18.040;2022-12-18T15:01:22;66.83;;;20.37;;
19167;SDS011;9716;53.114;18.040;2022-12-18T15:03:54;56.93;;;19.13;;
19167;SDS011;9716;53.114;18.040;2022-12-18T15:06:25;58.13;;;20.63;;